Time;durP1;ratioP1;P1;durP2;ratioP2;P2;SDS_P1;SDS_P2;PMS_P1;PMS_P2;Temp;Humidity;BMP_temperature;BMP_pressure;BME280_temperature;BME280_humidity;BME280_pressure;Samples;Min_cycle;Max_cycle;Signal;HPM_P1;HPM_P2
2022/01/15 00:01:32;;;;;;;38.58;14.80;;;;;;;2.14;100.00;101601.28;5105677;28;20031;-67
2022/01/15 00:03:57;;;;;;;33.88;13.15;;;;;;;2.20;100.00;101601.41;5089048;28;20023;-67
2022/01/15 00:06:23;;;;;;;35.17;14.95;;;;;;;2.23;100.00;101591.88;5087184;28;20063;-67
2022/01/15 00:08:48;;;;;;;39.78;16.05;;;;;;;2.23;100.00;101584.03;5087902;28;20052;-67
2022/01/15 00:11:13;;;;;;;35.58;13.85;;;;;;;2.18;100.00;101577.75;5098654;28;20020;-67
2022/01/15 00:13:42;;;;;;;34.97;14.55;;;;;;;2.23;100.00;101583.13;5089554;28;20036;-67
2022/01/15 00:16:11;;;;;;;45.85;16.08;;;;;;;2.26;100.00;101585.81;5089494;28;20127;-67
2022/01/15 00:18:47;;;;;;;39.22;16.38;;;;;;;2.22;100.00;101579.63;5089476;28;20024;-67
2022/01/15 00:21:14;;;;;;;39.60;17.95;;;;;;;2.28;100.00;101582.41;5089313;28;20024;-67
2022/01/15 00:23:40;;;;;;;41.10;15.82;;;;;;;2.15;100.00;101572.44;5089044;28;20077;-67
2022/01/15 00:26:06;;;;;;;47.50;16.17;;;;;;;2.11;100.00;101581.06;5096381;28;20023;-67
2022/01/15 00:28:31;;;;;;;43.22;15.60;;;;;;;2.01;100.00;101571.16;5089279;28;20460;-67
2022/01/15 00:30:56;;;;;;;33.65;14.30;;;;;;;2.02;100.00;101570.34;5089035;28;20023;-67
2022/01/15 00:33:24;;;;;;;33.20;12.50;;;;;;;2.00;100.00;101572.03;5089204;28;20020;-67
2022/01/15 00:35:49;;;;;;;41.90;15.30;;;;;;;2.06;100.00;101580.06;5088788;28;20125;-67
2022/01/15 00:38:15;;;;;;;34.42;15.45;;;;;;;2.10;100.00;101568.81;5089818;28;20036;-67
2022/01/15 00:40:40;;;;;;;32.83;13.68;;;;;;;2.10;100.00;101581.94;5089679;28;20055;-67
2022/01/15 00:43:06;;;;;;;40.40;14.55;;;;;;;2.16;100.00;101568.94;5088730;28;20035;-67
2022/01/15 00:45:33;;;;;;;53.05;16.77;;;;;;;2.13;100.00;101571.50;5096931;28;20028;-67
2022/01/15 00:48:17;;;;;;;47.17;15.48;;;;;;;2.13;100.00;101563.63;5109541;28;20372;-67
2022/01/15 00:50:43;;;;;;;40.13;14.60;;;;;;;2.12;100.00;101571.47;5089327;28;20123;-67
2022/01/15 00:53:09;;;;;;;37.47;14.70;;;;;;;2.05;100.00;101557.28;5070517;28;20031;-67
2022/01/15 00:55:34;;;;;;;33.67;14.68;;;;;;;2.05;100.00;101561.66;5092846;28;20102;-67
2022/01/15 00:58:00;;;;;;;42.50;15.43;;;;;;;2.13;100.00;101558.38;5099474;28;20394;-67
2022/01/15 01:00:26;;;;;;;39.17;15.18;;;;;;;2.14;100.00;101551.41;5108213;28;20364;-67
2022/01/15 01:02:53;;;;;;;50.85;17.08;;;;;;;2.22;100.00;101549.84;5102938;28;20099;-67
2022/01/15 01:05:20;;;;;;;43.75;14.88;;;;;;;2.21;100.00;101548.97;5088318;28;20028;-67
2022/01/15 01:07:46;;;;;;;45.95;14.98;;;;;;;2.23;100.00;101549.00;5092125;28;20379;-67
2022/01/15 01:13:08;;;;;;;31.92;15.00;;;;;;;2.22;100.00;101548.13;5093351;28;20059;-67
2022/01/15 01:23:44;;;;;;;34.35;12.57;;;;;;;2.15;100.00;101545.28;5093206;28;20054;-67
2022/01/15 01:26:22;;;;;;;34.67;13.02;;;;;;;2.09;100.00;101540.75;5092668;28;20016;-67
2022/01/15 01:28:57;;;;;;;28.98;11.48;;;;;;;2.22;100.00;101544.59;5094497;28;20016;-67
2022/01/15 01:31:31;;;;;;;29.65;10.95;;;;;;;2.22;100.00;101542.88;5092260;28;20047;-66
2022/01/15 01:34:05;;;;;;;33.22;13.13;;;;;;;2.15;100.00;101551.44;5092759;28;20117;-66
2022/01/15 01:39:19;;;;;;;37.90;12.05;;;;;;;2.14;100.00;101549.66;5092192;28;20084;-67
2022/01/15 01:42:03;;;;;;;38.78;14.77;;;;;;;2.10;100.00;101545.19;5092845;28;20035;-67
2022/01/15 01:44:29;;;;;;;29.42;11.23;;;;;;;2.10;100.00;101545.19;5095209;28;20064;-67
2022/01/15 01:47:03;;;;;;;29.98;12.70;;;;;;;2.10;100.00;101537.31;5091983;28;20024;-67
2022/01/15 01:49:28;;;;;;;32.25;13.32;;;;;;;2.14;100.00;101549.66;5091533;28;20494;-67
2022/01/15 01:51:54;;;;;;;29.90;11.68;;;;;;;2.14;100.00;101547.03;5091960;28;20024;-67
2022/01/15 01:54:20;;;;;;;36.17;13.18;;;;;;;2.19;100.00;101542.78;5092545;28;20342;-67
2022/01/15 01:56:47;;;;;;;27.50;12.63;;;;;;;2.19;100.00;101547.16;5096987;28;20019;-67
2022/01/15 01:59:14;;;;;;;27.73;11.90;;;;;;;2.14;100.00;101526.03;5112168;28;20098;-67
2022/01/15 02:01:40;;;;;;;39.17;12.82;;;;;;;2.22;100.00;101541.97;5113044;28;20092;-67
2022/01/15 02:04:05;;;;;;;35.65;12.55;;;;;;;2.10;100.00;101537.31;5105811;28;20498;-67
2022/01/15 02:06:31;;;;;;;30.42;12.90;;;;;;;2.11;100.00;101532.97;5091853;28;20027;-67
2022/01/15 02:08:58;;;;;;;35.08;14.50;;;;;;;2.15;100.00;101527.81;5091560;28;20499;-67
2022/01/15 02:11:25;;;;;;;39.63;13.02;;;;;;;2.21;100.00;101530.59;5111022;28;20019;-67
2022/01/15 02:13:50;;;;;;;30.80;13.25;;;;;;;2.25;100.00;101529.81;5094360;28;20085;-67
2022/01/15 02:16:16;;;;;;;26.55;11.00;;;;;;;2.19;100.00;101532.28;5108905;28;20076;-67
2022/01/15 02:18:42;;;;;;;28.80;12.48;;;;;;;2.19;100.00;101526.16;5095054;28;20039;-67
2022/01/15 02:23:35;;;;;;;29.25;13.13;;;;;;;2.14;100.00;101526.03;5092402;28;20031;-67
2022/01/15 02:26:07;;;;;;;26.88;12.13;;;;;;;2.12;100.00;101516.34;5091725;28;20024;-67
2022/01/15 02:28:37;;;;;;;30.55;12.65;;;;;;;2.17;100.00;101520.88;5111519;28;20032;-67
2022/01/15 02:31:06;;;;;;;29.70;10.98;;;;;;;2.11;100.00;101519.84;5111919;28;20019;-67
2022/01/15 02:33:32;;;;;;;25.83;11.73;;;;;;;1.97;100.00;101514.22;5111321;28;20542;-67
2022/01/15 02:35:58;;;;;;;28.65;11.38;;;;;;;1.99;100.00;101522.16;5111949;28;20061;-67
2022/01/15 02:38:24;;;;;;;25.27;10.45;;;;;;;1.86;100.00;101520.91;5093624;28;20023;-67
2022/01/15 02:40:50;;;;;;;29.45;12.50;;;;;;;1.82;100.00;101511.22;5108921;28;20084;-67
2022/01/15 02:43:20;;;;;;;33.70;12.07;;;;;;;1.85;100.00;101511.28;5091116;28;20024;-66
2022/01/15 02:45:55;;;;;;;32.92;11.95;;;;;;;1.82;100.00;101503.34;5090988;28;20035;-66
2022/01/15 02:48:26;;;;;;;33.30;13.82;;;;;;;1.83;100.00;101515.59;5097127;28;20020;-66
2022/01/15 02:50:53;;;;;;;38.35;12.50;;;;;;;1.82;100.00;101508.59;5102392;28;20026;-66
2022/01/15 02:53:19;;;;;;;27.42;12.38;;;;;;;1.92;100.00;101505.34;5090577;28;20547;-66
2022/01/15 02:55:48;;;;;;;26.55;11.65;;;;;;;1.86;100.00;101505.19;5090942;28;20111;-66
2022/01/15 02:58:15;;;;;;;26.73;10.55;;;;;;;1.88;100.00;101513.97;5091096;28;20023;-66
2022/01/15 03:00:41;;;;;;;24.92;11.48;;;;;;;1.90;100.00;101509.66;5090607;28;20525;-66
2022/01/15 03:03:06;;;;;;;32.30;13.18;;;;;;;1.88;100.00;101508.72;5091452;28;20031;-66
2022/01/15 03:05:32;;;;;;;22.95;10.90;;;;;;;1.77;100.00;101504.94;5093424;28;20110;-66
2022/01/15 03:07:57;;;;;;;25.05;10.65;;;;;;;1.69;100.00;101496.00;5090853;28;20577;-66
2022/01/15 03:10:23;;;;;;;28.95;13.07;;;;;;;1.65;100.00;101488.88;5100580;28;20019;-66
2022/01/15 03:12:48;;;;;;;20.83;10.93;;;;;;;1.66;100.00;101495.94;5111305;28;20019;-66
2022/01/15 03:15:19;;;;;;;29.08;13.00;;;;;;;1.66;100.00;101490.69;5110158;28;20518;-66
2022/01/15 03:17:45;;;;;;;30.42;14.38;;;;;;;1.71;100.00;101483.81;5096278;28;20024;-66
2022/01/15 03:20:12;;;;;;;27.13;12.70;;;;;;;1.69;100.00;101487.22;5111285;28;20038;-66
2022/01/15 03:22:37;;;;;;;34.00;12.48;;;;;;;1.66;100.00;101490.69;5110972;28;20483;-66
2022/01/15 03:25:03;;;;;;;28.30;13.32;;;;;;;1.67;100.00;101481.06;5110652;28;20104;-66
2022/01/15 03:27:29;;;;;;;25.65;11.80;;;;;;;1.71;100.00;101478.56;5099600;28;20117;-66
2022/01/15 03:29:54;;;;;;;29.25;12.55;;;;;;;1.74;100.00;101477.75;5090068;28;20052;-66
2022/01/15 03:32:20;;;;;;;24.95;12.50;;;;;;;1.71;100.00;101485.56;5091442;28;20024;-66
2022/01/15 03:34:46;;;;;;;26.48;11.13;;;;;;;1.65;100.00;101462.66;5108098;28;20035;-66
2022/01/15 03:37:12;;;;;;;27.48;12.43;;;;;;;1.70;100.00;101487.28;5110618;28;20096;-66
2022/01/15 03:39:38;;;;;;;30.45;10.68;;;;;;;1.66;100.00;101482.81;5110952;28;20051;-66
2022/01/15 03:42:11;;;;;;;32.55;13.15;;;;;;;1.68;100.00;101478.47;5110479;28;20074;-66
2022/01/15 03:44:45;;;;;;;27.23;13.15;;;;;;;1.74;100.00;101477.75;5107575;28;20027;-66
2022/01/15 03:47:12;;;;;;;24.98;12.50;;;;;;;1.76;100.00;101476.97;5110351;28;20035;-66
2022/01/15 03:49:37;;;;;;;25.40;11.65;;;;;;;1.63;100.00;101473.97;5110653;28;20368;-66
2022/01/15 03:52:07;;;;;;;27.83;11.55;;;;;;;1.59;100.00;101452.03;5110621;28;20085;-66
2022/01/15 03:54:33;;;;;;;24.17;10.95;;;;;;;1.59;100.00;101457.28;5091862;28;20031;-66
2022/01/15 03:57:00;;;;;;;29.33;12.07;;;;;;;1.70;100.00;101465.44;5109964;28;20073;-66
2022/01/15 03:59:26;;;;;;;21.20;10.93;;;;;;;1.78;100.00;101463.88;5109726;28;20028;-66
2022/01/15 04:01:52;;;;;;;28.20;12.38;;;;;;;1.53;100.00;101456.22;5110294;28;20467;-66
2022/01/15 04:04:18;;;;;;;27.17;11.20;;;;;;;1.49;100.00;101454.34;5110455;28;20027;-66
2022/01/15 04:06:44;;;;;;;25.15;13.00;;;;;;;1.41;100.00;101461.13;5093882;28;20032;-66
2022/01/15 04:09:11;;;;;;;27.85;11.98;;;;;;;1.43;100.00;101457.72;5099063;28;20415;-66
2022/01/15 04:11:36;;;;;;;35.35;11.98;;;;;;;1.42;100.00;101450.69;5088667;28;20182;-66
2022/01/15 04:14:03;;;;;;;26.38;11.32;;;;;;;1.44;100.00;101454.25;5094519;28;20112;-66
2022/01/15 04:16:29;;;;;;;25.88;10.95;;;;;;;1.38;100.00;101458.44;5098961;28;20052;-66
2022/01/15 04:18:58;;;;;;;26.02;12.65;;;;;;;1.42;100.00;101452.44;5096493;27;20046;-66
2022/01/15 04:21:25;;;;;;;30.38;11.48;;;;;;;1.21;100.00;101453.63;5099559;28;20027;-66
2022/01/15 04:23:51;;;;;;;26.10;12.77;;;;;;;1.30;100.00;101459.09;5098643;28;20501;-67
2022/01/15 04:26:18;;;;;;;29.38;11.57;;;;;;;1.34;100.00;101460.06;5093294;28;20020;-67
2022/01/15 04:28:44;;;;;;;28.08;11.73;;;;;;;1.33;100.00;101450.44;5097787;28;20126;-67
2022/01/15 04:31:10;;;;;;;29.98;13.90;;;;;;;1.25;100.00;101450.22;5097787;28;20098;-67
2022/01/15 04:33:37;;;;;;;30.27;13.65;;;;;;;1.35;100.00;101448.75;5098085;28;20497;-67
2022/01/15 04:36:05;;;;;;;29.20;11.98;;;;;;;1.43;100.00;101449.84;5108202;28;20429;-66
2022/01/15 04:38:33;;;;;;;27.90;12.02;;;;;;;1.27;100.00;101458.13;5105064;28;20081;-66
2022/01/15 04:40:58;;;;;;;26.95;12.43;;;;;;;1.34;100.00;101449.59;5088039;28;20031;-66
2022/01/15 04:43:24;;;;;;;30.90;12.20;;;;;;;1.31;100.00;101449.50;5089225;28;20499;-66
2022/01/15 04:45:49;;;;;;;35.17;12.48;;;;;;;1.38;100.00;101453.19;5091446;28;20024;-66
2022/01/15 04:48:15;;;;;;;44.65;14.00;;;;;;;1.37;100.00;101448.81;5089342;28;20124;-66
2022/01/15 04:50:40;;;;;;;34.60;14.13;;;;;;;1.42;100.00;101448.06;5089146;28;20031;-66
2022/01/15 04:53:08;;;;;;;29.60;12.25;;;;;;;1.33;100.00;101432.09;5088336;28;20379;-67
2022/01/15 04:55:34;;;;;;;35.28;12.68;;;;;;;1.39;100.00;101445.38;5073275;28;20024;-67
2022/01/15 04:58:00;;;;;;;30.17;13.93;;;;;;;1.29;100.00;101433.75;5104796;28;20020;-67
2022/01/15 05:00:25;;;;;;;28.10;12.88;;;;;;;1.16;100.00;101443.84;5109254;28;20023;-67
2022/01/15 05:02:51;;;;;;;31.00;11.57;;;;;;;1.20;100.00;101440.47;5109401;28;20256;-67
2022/01/15 05:05:16;;;;;;;29.30;12.55;;;;;;;1.29;100.00;101435.47;5109453;28;20034;-67
2022/01/15 05:07:42;;;;;;;36.10;13.95;;;;;;;1.35;100.00;101439.16;5109145;28;20479;-67
2022/01/15 05:10:09;;;;;;;27.30;11.98;;;;;;;1.34;100.00;101444.34;5102239;28;20023;-67
2022/01/15 05:12:43;;;;;;;33.45;13.57;;;;;;;1.37;100.00;101439.19;5089937;28;20494;-67
2022/01/15 05:15:12;;;;;;;30.60;13.95;;;;;;;1.36;100.00;101437.41;5091620;28;20473;-67
2022/01/15 05:17:37;;;;;;;31.38;12.70;;;;;;;1.32;100.00;101432.94;5089321;28;20039;-67
2022/01/15 05:20:03;;;;;;;30.02;13.85;;;;;;;1.35;100.00;101440.91;5088046;28;20020;-67
2022/01/15 05:22:29;;;;;;;30.58;13.75;;;;;;;1.32;100.00;101440.78;5088831;28;20444;-66
2022/01/15 05:24:54;;;;;;;31.63;15.30;;;;;;;1.33;100.00;101437.34;5097162;28;20054;-66
2022/01/15 05:27:20;;;;;;;36.47;13.90;;;;;;;1.35;100.00;101435.66;5088603;28;20134;-66
2022/01/15 05:29:45;;;;;;;27.42;13.50;;;;;;;1.35;100.00;101431.28;5087844;28;20073;-66
2022/01/15 05:32:11;;;;;;;31.30;13.75;;;;;;;1.21;100.00;101410.78;5097707;28;20036;-66
2022/01/15 05:34:36;;;;;;;33.22;13.48;;;;;;;1.35;100.00;101435.66;5096710;28;20034;-66
2022/01/15 05:37:03;;;;;;;28.50;14.25;;;;;;;1.38;100.00;101430.50;5097813;28;20114;-66
2022/01/15 05:39:28;;;;;;;30.27;13.85;;;;;;;1.32;100.00;101436.44;5098383;28;20019;-66
2022/01/15 05:41:54;;;;;;;32.75;15.25;;;;;;;1.31;100.00;101432.06;5090985;28;20477;-67
2022/01/15 05:44:20;;;;;;;38.72;15.73;;;;;;;1.36;100.00;101426.94;5088862;28;20039;-67
2022/01/15 05:46:45;;;;;;;32.67;14.52;;;;;;;1.34;100.00;101439.09;5088477;28;20016;-67
2022/01/15 05:49:11;;;;;;;31.67;14.45;;;;;;;1.34;100.00;101436.47;5088430;28;20476;-67
2022/01/15 05:51:36;;;;;;;32.75;13.88;;;;;;;1.35;100.00;101430.41;5091374;28;20055;-67
2022/01/15 05:54:10;;;;;;;35.25;15.07;;;;;;;1.38;100.00;101438.34;5090198;28;20110;-66
2022/01/15 05:56:36;;;;;;;;;;;;;;;1.40;100.00;101435.78;5095392;28;20024;-66
2022/01/15 05:59:01;;;;;;;31.27;13.02;;;;;;;1.24;100.00;101444.94;5110826;28;19916;-66
2022/01/15 06:01:27;;;;;;;27.08;13.30;;;;;;;1.32;100.00;101435.56;5101156;28;20028;-67
2022/01/15 06:03:53;;;;;;;39.30;14.48;;;;;;;1.29;100.00;101451.19;5082607;28;20387;-67
2022/01/15 06:06:19;;;;;;;34.88;14.45;;;;;;;1.38;100.00;101445.31;5082043;28;20103;-67
2022/01/15 06:08:44;;;;;;;28.17;12.70;;;;;;;1.40;100.00;101443.63;5100111;28;20111;-67
2022/01/15 06:11:11;;;;;;;28.63;15.55;;;;;;;1.37;100.00;101444.44;5098692;28;20024;-67
2022/01/15 06:13:36;;;;;;;37.25;16.67;;;;;;;1.35;100.00;101449.63;5095923;28;20032;-67
2022/01/15 06:16:03;;;;;;;34.83;16.88;;;;;;;1.40;100.00;101444.50;5102944;28;20055;-66
2022/01/15 06:18:28;;;;;;;45.28;19.50;;;;;;;1.40;100.00;101444.50;5092317;28;20060;-66
2022/01/15 06:20:54;;;;;;;31.08;16.63;;;;;;;1.43;100.00;101446.34;5098996;28;20108;-66
2022/01/15 06:23:20;;;;;;;38.67;17.38;;;;;;;1.43;100.00;101448.97;5091493;28;20028;-66
2022/01/15 06:25:45;;;;;;;37.55;17.08;;;;;;;1.42;100.00;101437.56;5073954;28;20024;-66
2022/01/15 06:28:10;;;;;;;34.15;16.30;;;;;;;1.41;100.00;101440.16;5095734;28;20057;-66
2022/01/15 06:30:36;;;;;;;34.10;17.20;;;;;;;1.33;100.00;101430.34;5111892;28;20464;-66
2022/01/15 06:33:01;;;;;;;44.00;20.23;;;;;;;1.34;100.00;101428.63;5110478;28;20027;-66
2022/01/15 06:35:27;;;;;;;43.78;21.30;;;;;;;1.31;100.00;101433.78;5109890;28;20402;-66
2022/01/15 06:37:52;;;;;;;35.55;17.10;;;;;;;1.22;100.00;101431.81;5094190;28;20016;-66
2022/01/15 06:40:18;;;;;;;34.55;16.92;;;;;;;1.21;100.00;101431.75;5097139;28;20476;-66
2022/01/15 06:42:44;;;;;;;36.75;16.92;;;;;;;1.26;100.00;101436.28;5091309;28;20070;-66
2022/01/15 06:45:10;;;;;;;31.02;15.55;;;;;;;1.30;100.00;101432.03;5099538;28;20490;-66
2022/01/15 06:47:36;;;;;;;30.67;15.73;;;;;;;1.31;100.00;101433.78;5093997;28;20016;-66
2022/01/15 06:50:05;;;;;;;32.08;17.23;;;;;;;1.17;100.00;101420.31;5100907;28;20557;-66
2022/01/15 06:52:34;;;;;;;35.72;17.15;;;;;;;1.29;100.00;101432.84;5101342;28;20490;-66
2022/01/15 06:55:00;;;;;;;75.72;22.33;;;;;;;1.32;100.00;101427.69;5078662;28;20024;-67
2022/01/15 06:57:26;;;;;;;89.57;20.13;;;;;;;1.29;100.00;101430.22;5101186;28;20038;-67
2022/01/15 06:59:52;;;;;;;36.17;15.07;;;;;;;1.25;100.00;101433.63;5099514;28;20044;-67
2022/01/15 07:02:17;;;;;;;32.55;15.70;;;;;;;1.29;100.00;101430.22;5101229;28;20054;-66
2022/01/15 07:04:43;;;;;;;30.83;14.20;;;;;;;1.31;100.00;101420.69;5102484;28;20030;-66
2022/01/15 07:07:08;;;;;;;31.58;15.48;;;;;;;1.18;100.00;101405.47;5099645;28;20031;-66
2022/01/15 07:09:35;;;;;;;38.97;15.80;;;;;;;1.19;100.00;101417.72;5099407;28;20442;-66
2022/01/15 07:12:01;;;;;;;35.30;18.15;;;;;;;1.25;100.00;101426.63;5106269;28;20023;-66
2022/01/15 07:14:26;;;;;;;35.83;16.92;;;;;;;1.27;100.00;101426.69;5110636;28;20027;-66
2022/01/15 07:16:52;;;;;;;37.60;15.68;;;;;;;1.24;100.00;101418.72;5105370;28;20048;-66
2022/01/15 07:19:17;;;;;;;31.92;15.20;;;;;;;1.29;100.00;101425.88;5090840;28;20385;-66
2022/01/15 07:21:42;;;;;;;44.15;18.27;;;;;;;1.34;100.00;101418.13;5071929;28;20114;-66
2022/01/15 07:24:08;;;;;;;39.90;16.38;;;;;;;1.30;100.00;101421.53;5090629;28;20016;-66
2022/01/15 07:26:34;;;;;;;40.72;18.48;;;;;;;1.23;100.00;101409.13;5091732;28;20028;-66
2022/01/15 07:28:59;;;;;;;35.35;15.68;;;;;;;1.31;100.00;101429.44;5089734;28;20036;-66
2022/01/15 07:31:25;;;;;;;47.47;19.15;;;;;;;1.35;100.00;101425.19;5091766;28;20020;-66
2022/01/15 07:33:50;;;;;;;49.65;20.65;;;;;;;1.28;100.00;101426.75;5089875;28;20488;-66
2022/01/15 07:36:16;;;;;;;48.63;21.15;;;;;;;1.36;100.00;101432.19;5090141;28;20396;-66
2022/01/15 07:38:42;;;;;;;39.20;17.38;;;;;;;1.29;100.00;101430.22;5089943;28;20143;-66
2022/01/15 07:41:12;;;;;;;36.95;18.30;;;;;;;1.31;100.00;101429.44;5098754;28;20029;-66
2022/01/15 07:43:37;;;;;;;46.75;19.05;;;;;;;1.35;100.00;101428.66;5098557;28;20024;-66
2022/01/15 07:46:03;;;;;;;32.42;17.40;;;;;;;1.35;100.00;101428.66;5100897;28;20026;-66
2022/01/15 07:48:28;;;;;;;36.05;16.95;;;;;;;1.39;100.00;101429.63;5078493;28;20421;-66
2022/01/15 07:50:53;;;;;;;45.72;20.42;;;;;;;1.39;100.00;101427.00;5099366;28;20032;-66
2022/01/15 07:53:19;;;;;;;39.47;16.63;;;;;;;1.38;100.00;101429.59;5093298;28;20023;-66
2022/01/15 07:55:44;;;;;;;29.25;16.67;;;;;;;1.32;100.00;101430.31;5098524;28;20459;-66
2022/01/15 07:58:10;;;;;;;36.38;15.93;;;;;;;1.31;100.00;101434.69;5105264;28;20022;-66
2022/01/15 08:00:35;;;;;;;34.97;17.08;;;;;;;1.38;100.00;101433.13;5097764;28;20036;-66
2022/01/15 08:03:01;;;;;;;35.70;16.40;;;;;;;1.33;100.00;101426.88;5098680;28;20448;-66
2022/01/15 08:05:27;;;;;;;41.22;18.17;;;;;;;1.25;100.00;101431.00;5096109;28;20391;-66
2022/01/15 08:07:52;;;;;;;31.05;16.30;;;;;;;1.32;100.00;101430.31;5099292;28;20077;-66
2022/01/15 08:10:17;;;;;;;30.08;14.63;;;;;;;1.44;100.00;101440.22;5099349;28;20024;-66
2022/01/15 08:12:51;;;;;;;34.97;15.80;;;;;;;1.48;100.00;101427.28;5083343;28;20126;-66
2022/01/15 08:15:19;;;;;;;32.42;16.95;;;;;;;1.53;100.00;101430.91;5098036;28;20035;-66
2022/01/15 08:17:45;;;;;;;34.60;14.82;;;;;;;1.56;100.00;101427.47;5073118;28;20023;-66
2022/01/15 08:20:11;;;;;;;32.42;15.65;;;;;;;1.56;100.00;101424.84;5091811;28;20487;-67
2022/01/15 08:22:38;;;;;;;30.98;17.73;;;;;;;1.53;100.00;101430.00;5097870;28;20020;-66
2022/01/15 08:25:04;;;;;;;36.65;16.65;;;;;;;1.51;100.00;101432.59;5100294;28;20023;-66
2022/01/15 08:27:30;;;;;;;33.65;15.90;;;;;;;1.53;100.00;101423.03;5102036;28;20476;-66
2022/01/15 08:29:55;;;;;;;34.42;16.15;;;;;;;1.46;100.00;101430.69;5088940;28;20422;-66
2022/01/15 08:32:20;;;;;;;34.10;16.17;;;;;;;1.54;100.00;101427.41;5088934;28;20028;-66
2022/01/15 08:34:46;;;;;;;34.25;15.63;;;;;;;1.53;100.00;101430.91;5075152;28;20058;-66
2022/01/15 08:37:11;;;;;;;33.97;14.93;;;;;;;1.51;100.00;101432.59;5092070;28;20471;-66
2022/01/15 08:39:37;;;;;;;35.47;15.98;;;;;;;1.55;100.00;101429.19;5096458;28;20103;-66
2022/01/15 08:42:05;;;;;;;30.98;15.07;;;;;;;1.57;100.00;101427.50;5078904;28;20110;-66
2022/01/15 08:44:31;;;;;;;35.55;16.88;;;;;;;1.53;100.00;101425.66;5098494;28;20107;-66
2022/01/15 08:46:57;;;;;;;36.17;14.52;;;;;;;1.47;100.00;101422.84;5099222;28;20032;-66
2022/01/15 08:49:22;;;;;;;42.10;17.30;;;;;;;1.49;100.00;101425.50;5098243;28;20494;-66
2022/01/15 08:51:48;;;;;;;33.53;16.15;;;;;;;1.47;100.00;101425.47;5097447;28;20028;-66
2022/01/15 08:54:14;;;;;;;36.22;15.32;;;;;;;1.48;100.00;101416.78;5085794;28;20038;-66
2022/01/15 08:56:39;;;;;;;42.47;17.55;;;;;;;1.52;100.00;101423.88;5099151;28;20023;-66
2022/01/15 08:59:05;;;;;;;35.85;15.98;;;;;;;1.54;100.00;101410.78;5099415;28;20055;-66
2022/01/15 09:01:31;;;;;;;33.67;16.52;;;;;;;1.64;100.00;101416.31;5097466;28;20100;-66
2022/01/15 09:03:57;;;;;;;29.88;14.63;;;;;;;1.68;100.00;101412.91;5097331;28;20085;-66
2022/01/15 09:06:24;;;;;;;27.35;14.13;;;;;;;1.67;100.00;101423.38;5097349;28;20027;-66
2022/01/15 09:08:49;;;;;;;31.85;15.57;;;;;;;1.65;100.00;101420.72;5097562;28;20539;-66
2022/01/15 09:11:14;;;;;;;30.77;15.60;;;;;;;1.63;100.00;101417.16;5076954;28;20055;-66
2022/01/15 09:13:41;;;;;;;35.58;15.55;;;;;;;1.66;100.00;101414.63;5097534;28;20050;-66
2022/01/15 09:16:07;;;;;;;36.15;14.93;;;;;;;1.78;100.00;101409.66;5097455;28;20669;-66
2022/01/15 09:18:34;;;;;;;43.50;16.98;;;;;;;1.72;100.00;101413.88;5101819;28;20077;-66
2022/01/15 09:20:59;;;;;;;40.38;17.92;;;;;;;1.75;100.00;101412.22;5097129;28;20023;-66
2022/01/15 09:23:25;;;;;;;41.92;17.48;;;;;;;1.76;100.00;101413.13;5098177;28;20450;-66
2022/01/15 09:25:50;;;;;;;39.08;15.48;;;;;;;1.82;100.00;101403.66;5097459;28;20036;-66
2022/01/15 09:31:00;;;;;;;36.17;14.45;;;;;;;1.80;100.00;101405.34;5100316;28;20084;-66
2022/01/15 09:33:26;;;;;;;33.20;14.95;;;;;;;1.88;100.00;101401.19;5101336;28;20023;-66
2022/01/15 09:35:51;;;;;;;34.70;15.07;;;;;;;1.99;100.00;101407.59;5100754;28;20107;-66
2022/01/15 09:38:17;;;;;;;43.22;17.52;;;;;;;2.01;100.00;101405.00;5101081;28;20069;-66
2022/01/15 09:40:43;;;;;;;36.33;16.40;;;;;;;2.02;100.00;101406.75;5103497;28;20387;-66
2022/01/15 09:43:09;;;;;;;34.75;17.33;;;;;;;1.89;100.00;101400.34;5101010;28;20066;-66
2022/01/15 09:45:35;;;;;;;35.83;16.40;;;;;;;1.96;100.00;101398.75;5100574;28;20427;-66
2022/01/15 09:48:04;;;;;;;36.50;16.17;;;;;;;1.84;100.00;101388.88;5100896;28;20099;-66
2022/01/15 09:50:33;;;;;;;39.70;18.23;;;;;;;1.78;100.00;101387.81;5101516;28;20027;-65
2022/01/15 09:52:59;;;;;;;35.63;16.10;;;;;;;1.80;100.00;101378.22;5102508;28;20516;-65
2022/01/15 09:55:25;;;;;;;35.13;17.75;;;;;;;1.77;100.00;101384.31;5083045;28;20115;-66
2022/01/15 09:57:52;;;;;;;36.53;17.20;;;;;;;1.86;100.00;101379.25;5101478;28;20490;-66
2022/01/15 10:00:19;;;;;;;31.13;17.02;;;;;;;1.90;100.00;101381.13;5096274;28;20083;-65
2022/01/15 10:02:46;;;;;;;39.53;18.33;;;;;;;1.86;100.00;101378.41;5102325;28;20111;-65
2022/01/15 10:05:14;;;;;;;40.40;16.67;;;;;;;1.89;100.00;101386.34;5102363;28;20050;-65
2022/01/15 10:08:04;;;;;;;40.72;18.40;;;;;;;1.97;100.00;101383.06;5102352;28;20422;-65
2022/01/15 10:10:32;;;;;;;32.67;17.73;;;;;;;1.89;100.00;101368.88;5099941;28;20032;-65
2022/01/15 10:13:13;;;;;;;35.88;19.10;;;;;;;1.95;100.00;101374.25;5102060;28;20024;-65
2022/01/15 10:15:39;;;;;;;43.03;19.17;;;;;;;2.03;100.00;101370.06;5101213;28;20052;-65
2022/01/15 10:18:22;;;;;;;43.80;18.88;;;;;;;2.14;100.00;101355.44;5100634;28;20533;-66
2022/01/15 10:20:48;;;;;;;45.47;19.27;;;;;;;2.08;100.00;101365.81;5101132;28;20493;-65
2022/01/15 10:23:16;;;;;;;40.55;19.95;;;;;;;2.04;100.00;101350.84;5101769;28;20027;-67
2022/01/15 10:25:42;;;;;;;42.03;20.45;;;;;;;2.11;100.00;101358.00;5101012;28;20028;-67
2022/01/15 10:28:09;;;;;;;43.25;18.85;;;;;;;2.13;100.00;101352.78;5104039;28;20030;-66
2022/01/15 10:30:35;;;;;;;43.25;20.13;;;;;;;2.17;100.00;101350.28;5098558;28;20027;-66
2022/01/15 10:33:05;;;;;;;40.40;19.98;;;;;;;2.18;100.00;101341.56;5100391;28;20054;-66
2022/01/15 10:35:34;;;;;;;39.97;19.58;;;;;;;2.23;100.00;101350.41;5097736;28;20102;-66
2022/01/15 10:38:02;;;;;;;36.78;17.88;;;;;;;2.24;100.00;101341.66;5100930;28;20027;-66
2022/01/15 10:40:55;;;;;;;35.90;17.70;;;;;;;2.34;100.00;101337.53;5097191;28;20023;-66
2022/01/15 10:43:31;;;;;;;36.28;17.92;;;;;;;2.49;100.00;101337.81;5100131;28;20023;-66
2022/01/15 10:45:58;;;;;;;41.28;20.13;;;;;;;2.40;100.00;101337.66;5099647;28;20016;-66
2022/01/15 10:48:32;;;;;;;36.50;16.80;;;;;;;2.35;100.00;101340.19;5099941;28;20081;-66
2022/01/15 10:51:02;;;;;;;40.88;17.60;;;;;;;2.37;100.00;101337.59;5099187;28;20391;-66
2022/01/15 10:53:35;;;;;;;37.78;16.88;;;;;;;2.34;100.00;101343.66;5099611;28;20057;-66
2022/01/15 10:56:01;;;;;;;40.63;18.10;;;;;;;2.34;100.00;101333.16;5099942;28;20398;-67
2022/01/15 10:58:27;;;;;;;41.03;18.65;;;;;;;2.50;100.00;101334.38;5097985;28;20030;-66
2022/01/15 11:00:53;;;;;;;46.20;19.08;;;;;;;2.42;100.00;101328.94;5102327;28;20102;-66
2022/01/15 11:03:19;;;;;;;36.95;18.00;;;;;;;2.41;100.00;101319.31;5100593;28;20115;-66
2022/01/15 11:05:49;;;;;;;43.88;18.70;;;;;;;2.44;100.00;101322.00;5101791;28;20027;-66
2022/01/15 11:08:19;;;;;;;39.45;17.50;;;;;;;2.46;100.00;101317.66;5099576;28;20069;-66
2022/01/15 11:10:44;;;;;;;51.28;19.77;;;;;;;2.43;100.00;101322.84;5098954;28;20111;-66
2022/01/15 11:13:12;;;;;;;43.92;18.27;;;;;;;2.44;100.00;101324.63;5099370;28;20099;-66
2022/01/15 11:15:49;;;;;;;42.97;19.30;;;;;;;2.39;100.00;101323.63;5099138;28;20044;-66
2022/01/15 11:18:19;;;;;;;39.75;17.50;;;;;;;2.42;100.00;101321.06;5098052;28;20012;-65
2022/01/15 11:20:48;;;;;;;42.97;18.98;;;;;;;2.57;100.00;101318.75;5084029;28;20015;-65
2022/01/15 11:23:14;;;;;;;40.58;17.10;;;;;;;2.64;100.00;101315.41;5099439;28;20357;-66
2022/01/15 11:25:42;;;;;;;42.05;18.33;;;;;;;2.55;100.00;101323.09;5098351;28;20480;-66
2022/01/15 11:28:07;;;;;;;37.08;16.85;;;;;;;2.59;100.00;101316.16;5096864;28;20409;-66